Map

Track Data

SID SEASON NUMBER BASIN SUBBASIN NAME ISO_TIME NATURE LAT LON WMO_WIND WMO_PRES WMO_AGENCY TRACK_TYPE DIST2LAND LANDFALL IFLAG USA_AGENCY USA_ATCF_ID USA_LAT USA_LON USA_RECORD USA_STATUS USA_WIND USA_PRES USA_SSHS USA_R34_NE USA_R34_SE USA_R34_SW USA_R34_NW USA_R50_NE USA_R50_SE USA_R50_SW USA_R50_NW USA_R64_NE USA_R64_SE USA_R64_SW USA_R64_NW USA_POCI USA_ROCI USA_RMW USA_EYE TOKYO_LAT TOKYO_LON TOKYO_GRADE TOKYO_WIND TOKYO_PRES TOKYO_R50_DIR TOKYO_R50_LONG TOKYO_R50_SHORT TOKYO_R30_DIR TOKYO_R30_LONG TOKYO_R30_SHORT TOKYO_LAND CMA_LAT CMA_LON CMA_CAT CMA_WIND CMA_PRES HKO_LAT HKO_LON HKO_CAT HKO_WIND HKO_PRES NEWDELHI_LAT NEWDELHI_LON NEWDELHI_GRADE NEWDELHI_WIND NEWDELHI_PRES NEWDELHI_CI NEWDELHI_DP NEWDELHI_POCI REUNION_LAT REUNION_LON REUNION_TYPE REUNION_WIND REUNION_PRES REUNION_TNUM REUNION_CI REUNION_RMW REUNION_R34_NE REUNION_R34_SE REUNION_R34_SW REUNION_R34_NW REUNION_R50_NE REUNION_R50_SE REUNION_R50_SW REUNION_R50_NW REUNION_R64_NE REUNION_R64_SE REUNION_R64_SW REUNION_R64_NW BOM_LAT BOM_LON BOM_TYPE BOM_WIND BOM_PRES BOM_TNUM BOM_CI BOM_RMW BOM_R34_NE BOM_R34_SE BOM_R34_SW BOM_R34_NW BOM_R50_NE BOM_R50_SE BOM_R50_SW BOM_R50_NW BOM_R64_NE BOM_R64_SE BOM_R64_SW BOM_R64_NW BOM_ROCI BOM_POCI BOM_EYE BOM_POS_METHOD BOM_PRES_METHOD NADI_LAT NADI_LON NADI_CAT NADI_WIND NADI_PRES WELLINGTON_LAT WELLINGTON_LON WELLINGTON_WIND WELLINGTON_PRES DS824_LAT DS824_LON DS824_STAGE DS824_WIND DS824_PRES TD9636_LAT TD9636_LON TD9636_STAGE TD9636_WIND TD9636_PRES TD9635_LAT TD9635_LON TD9635_WIND TD9635_PRES TD9635_ROCI NEUMANN_LAT NEUMANN_LON NEUMANN_CLASS NEUMANN_WIND NEUMANN_PRES MLC_LAT MLC_LON MLC_CLASS MLC_WIND MLC_PRES USA_GUST BOM_GUST BOM_GUST_PER REUNION_GUST REUNION_GUST_PER USA_SEAHGT USA_SEARAD_NE USA_SEARAD_SE USA_SEARAD_SW USA_SEARAD_NW STORM_SPEED STORM_DIR
1929009S19115 1929 4 SI WA NOT_NAMED 1929-01-08 23:00:00 NR -18.8000 114.600 main 288 264 __________O___ -1 -18.8000 114.600 7 17 164
1929009S19115 1929 4 SI WA NOT_NAMED 1929-01-09 00:00:00 NR -19.0656 114.688 main 255 246 __________P___ -1 -19.0656 114.688 7 14 162
1929009S19115 1929 4 SI WA NOT_NAMED 1929-01-09 01:00:00 NR -19.2482 114.757 bom main 239 188 ______O___P___ -1 -19.0000 114.700 -19.3310 114.776 7 15 161
1929009S19115 1929 4 SI WA NOT_NAMED 1929-01-09 03:00:00 NR -19.7476 114.936 main 188 98 ______P___P___ -1 -19.5239 114.901 -19.8594 114.953 7 16 161
1929009S19115 1929 4 SI WA NOT_NAMED 1929-01-09 06:00:00 NR -20.4959 115.216 main 98 23 ______P___P___ -1 -20.3010 115.203 -20.6421 115.225 7 16 160
1929009S19115 1929 4 SI WA NOT_NAMED 1929-01-09 09:00:00 NR -21.2306 115.504 main 23 0 ______P___P___ -1 -21.0557 115.502 -21.4056 115.506 7 16 160
1929009S19115 1929 4 SI WA NOT_NAMED 1929-01-09 10:00:00 NR -21.4772 115.601 bom main 0 0 ______O___P___ -1 -21.3000 115.600 -21.6544 115.602 7 16 160
1929009S19115 1929 4 SI WA NOT_NAMED 1929-01-09 11:00:00 NR -21.7200 115.699 main 0 0 ______P___O___ -1 -21.5400 115.698 -21.9000 115.700 7 16 159
1929009S19115 1929 4 SI WA NOT_NAMED 1929-01-09 12:00:00 NR -21.9586 115.797 main 0 0 ______P___P___ -1 -21.7753 115.794 -22.1419 115.799 7 15 159
1929009S19115 1929 4 SI WA NOT_NAMED 1929-01-09 15:00:00 NR -22.6439 116.088 main 0 0 ______P___P___ -1 -22.4511 116.077 -22.8367 116.099 7 14 158
1929009S19115 1929 4 SI WA NOT_NAMED 1929-01-09 18:00:00 NR -23.2710 116.367 main 0 0 ______P___P___ -1 -23.0762 116.346 -23.4657 116.389 7 13 157
1929009S19115 1929 4 SI WA NOT_NAMED 1929-01-09 21:00:00 NR -23.8240 116.624 main 0 0 ______P___P___ -1 -23.6440 116.598 -24.0040 116.651 7 11 157
1929009S19115 1929 4 SI WA NOT_NAMED 1929-01-09 23:00:00 NR -24.1436 116.777 main 0 0 ______P___O___ -1 -23.9873 116.754 -24.3000 116.800 7 10 156
1929009S19115 1929 4 SI WA NOT_NAMED 1929-01-10 00:00:00 NR -24.2863 116.844 main 0 0 ______P___P___ -1 -24.1476 116.829 -24.4251 116.859 7 9 157
1929009S19115 1929 4 SI WA NOT_NAMED 1929-01-10 01:00:00 NR -24.4176 116.905 bom main 0 0 ______O___P___ -1 -24.3000 116.900 -24.5353 116.911 7 8 157
1929009S19115 1929 4 SI WA NOT_NAMED 1929-01-10 03:00:00 NR -24.6494 117.017 main 0 0 ______P___P___ -1 -24.5809 117.034 -24.7180 117.000 7 7 156
1929009S19115 1929 4 SI WA NOT_NAMED 1929-01-10 06:00:00 NR -24.9354 117.162 main 0 0 ______P___P___ -1 -24.9472 117.215 -24.9237 117.109 7 6 154
1929009S19115 1929 4 SI WA NOT_NAMED 1929-01-10 09:00:00 NR -25.1723 117.296 main 0 0 ______P___P___ -1 -25.2555 117.375 -25.0891 117.216 7 5 152
1929009S19115 1929 4 SI WA NOT_NAMED 1929-01-10 11:00:00 NR -25.3167 117.386 main 0 0 ______P___O___ -1 -25.4334 117.471 -25.2000 117.300 7 5 149
1929009S19115 1929 4 SI WA NOT_NAMED 1929-01-10 12:00:00 NR -25.3878 117.433 main 0 0 ______P___P___ -1 -25.5151 117.516 -25.2605 117.349 7 5 148
1929009S19115 1929 4 SI WA NOT_NAMED 1929-01-10 15:00:00 NR -25.5993 117.582 main 0 0 ______P___P___ -1 -25.7351 117.643 -25.4635 117.521 7 5 147
1929009S19115 1929 4 SI WA NOT_NAMED 1929-01-10 18:00:00 NR -25.8246 117.743 main 0 0 ______P___P___ -1 -25.9247 117.758 -25.6912 117.724 7 5 148
1929009S19115 1929 4 SI WA NOT_NAMED 1929-01-10 21:00:00 NR -26.0400 117.892 main 0 0 ______P___P___ -1 -26.0930 117.864 -25.9342 117.946 7 5 149
1929009S19115 1929 4 SI WA NOT_NAMED 1929-01-10 23:00:00 NR -26.1734 117.974 main 0 0 ______P___O___ -1 -26.1979 117.933 -26.1000 118.100 7 4 162
1929009S19115 1929 4 SI WA NOT_NAMED 1929-01-11 00:00:00 NR -26.2491 117.966 main 0 0 ______P_______ -1 -26.2491 117.966 7 4 0
1929009S19115 1929 4 SI WA NOT_NAMED 1929-01-11 01:00:00 NR -26.3000 118.000 bom main 0 ______O_______ -1 -26.3000 118.000 7 4 138

About IBTrACS Database

This database is a web-friendly format of International Best Track Archive for Climate Stewardship (IBTrACS), a global best track data archive curated by NOAA dating back to 1842.

Updated: 2021-10-21